Mountain Village, Alaska
Current Conditions -  °F | °C
As of 12:56 PM on Wednesday 28 Jan 2015 (Local Time) from PAMO Reporting Station
Clear Clear  
Wind Chill: -19°   Ceiling: Unl
Heat Index: -3°   Visibility: 10mi
Dew Point: -13°   Wind: 9mph
Humidity: 62%   Direction: 340°NNW
Pressure: 30.33"   Gusts: NA
Location:  62.09°N, 163.73°W
Report Text: PAMO 282156Z AUTO 34008KT 10SM CLR M19/M25 A3033 RMK AO2 TSNO T11941250 SLP155 $
Loading
Personal Weather Stations






























Interactive Weather Map New forecast layout! Learn more

10-Day Weather Forecast

Advertisements
Track Severe Weather on mobile